createdAt,value
2018-07-11T00:01:10.282Z,99.40
2018-07-11T00:06:37.131Z,99.10
2018-07-11T00:09:08.015Z,98.80
2018-07-11T00:11:37.793Z,98.80
2018-07-11T00:14:07.505Z,99.20
2018-07-11T00:16:37.842Z,99.60
2018-07-11T00:19:07.831Z,99.50
2018-07-11T00:21:38.571Z,99.70
2018-07-11T00:24:27.544Z,99.60
2018-07-11T00:26:59.974Z,99.90
2018-07-11T00:29:31.419Z,99.90
2018-07-11T00:32:03.409Z,99.90
2018-07-11T00:34:33.793Z,99.90
2018-07-11T00:37:06.524Z,99.90
2018-07-11T00:39:37.918Z,99.90
2018-07-11T00:42:09.830Z,99.90
2018-07-11T00:44:40.821Z,99.90
2018-07-11T00:47:12.308Z,99.90
2018-07-11T00:49:43.247Z,99.90
2018-07-11T00:52:13.544Z,99.90
2018-07-11T00:54:43.475Z,99.90
2018-07-11T00:57:35.511Z,99.90
2018-07-11T01:00:07.083Z,99.90
2018-07-11T01:02:36.773Z,99.90
2018-07-11T01:05:06.447Z,99.90
2018-07-11T01:07:37.176Z,99.90
2018-07-11T01:10:07.013Z,99.90
2018-07-11T01:12:38.179Z,99.90
2018-07-11T01:15:08.961Z,99.90
2018-07-11T01:17:44.277Z,99.90
2018-07-11T01:20:27.213Z,99.90
2018-07-11T01:22:57.398Z,99.90
2018-07-11T01:25:28.123Z,99.90
2018-07-11T01:27:58.942Z,99.90
2018-07-11T01:30:29.687Z,99.90
2018-07-11T01:33:00.449Z,99.90
2018-07-11T01:35:40.768Z,99.90
2018-07-11T01:38:13.585Z,99.90
2018-07-11T01:40:45.673Z,99.90
2018-07-11T01:43:17.981Z,99.90
2018-07-11T01:45:52.368Z,99.90
2018-07-11T01:48:23.087Z,99.90
2018-07-11T01:50:55.969Z,99.90
2018-07-11T01:53:31.693Z,99.90
2018-07-11T01:56:02.220Z,99.90
2018-07-11T01:58:33.007Z,99.90
2018-07-11T02:01:04.831Z,99.90
2018-07-11T02:03:36.216Z,99.90
2018-07-11T02:06:13.303Z,99.80
2018-07-11T02:11:24.078Z,99.50
2018-07-11T02:13:55.197Z,99.30
2018-07-11T02:16:26.424Z,99.30
2018-07-11T02:18:58.333Z,99.40
2018-07-11T02:21:31.038Z,99.60
2018-07-11T02:30:01.863Z,98.90
2018-07-11T02:32:34.239Z,98.60
2018-07-11T02:35:08.746Z,98.40
2018-07-11T02:37:43.901Z,97.10
2018-07-11T02:43:12.003Z,95.70
2018-07-11T02:45:44.217Z,95.20
2018-07-11T02:48:14.416Z,94.60
2018-07-11T02:50:45.834Z,94.60
2018-07-11T02:56:11.635Z,93.60
2018-07-11T02:58:44.669Z,94.00
2018-07-11T03:01:16.818Z,93.80
2018-07-11T03:03:48.297Z,94.00
2018-07-11T03:06:18.118Z,93.70
2018-07-11T03:08:59.597Z,93.50
2018-07-11T03:11:29.489Z,93.30
2018-07-11T03:19:48.620Z,93.80
2018-07-11T03:22:19.269Z,93.20
2018-07-11T03:24:49.974Z,93.00
2018-07-11T03:27:20.563Z,93.60
2018-07-11T03:29:56.253Z,94.30
2018-07-11T03:32:26.962Z,94.20
2018-07-11T03:34:57.776Z,94.40
2018-07-11T03:37:36.759Z,93.80
2018-07-11T03:40:07.381Z,93.30
2018-07-11T04:01:17.118Z,93.30
2018-07-11T04:04:54.166Z,93.40
2018-07-11T04:20:16.521Z,93.90
2018-07-11T04:26:02.169Z,93.70
2018-07-11T04:45:37.131Z,94.20
2018-07-11T04:48:48.580Z,94.10
2018-07-11T05:26:22.993Z,93.90
2018-07-11T05:29:17.350Z,93.80
2018-07-11T05:37:04.421Z,94.10
2018-07-11T08:17:42.754Z,94.20
2018-07-11T08:20:11.375Z,90.10
2018-07-11T08:23:18.627Z,89.70
2018-07-11T08:25:59.750Z,89.70
2018-07-11T08:30:45.249Z,87.90
2018-07-11T08:34:27.550Z,85.90
2018-07-11T08:37:08.144Z,82.30
2018-07-11T08:39:51.997Z,84.10
2018-07-11T08:42:46.126Z,82.40
2018-07-11T08:47:30.794Z,81.90
2018-07-11T08:50:43.114Z,79.90
2018-07-11T08:53:19.579Z,75.10
2018-07-11T08:58:13.835Z,74.00
2018-07-11T09:05:40.353Z,74.10
2018-07-11T09:10:23.098Z,75.90
2018-07-11T09:13:06.801Z,74.70
2018-07-11T09:15:46.618Z,76.10
2018-07-11T09:20:34.921Z,76.40
2018-07-11T09:25:11.664Z,77.30
2018-07-11T09:27:40.345Z,79.10
2018-07-11T09:30:09.024Z,80.40
2018-07-11T09:32:37.702Z,81.00
2018-07-11T09:35:06.359Z,81.20
2018-07-11T09:37:35.038Z,79.60
2018-07-11T09:40:03.690Z,80.10
2018-07-11T09:42:32.335Z,80.10
2018-07-11T09:45:01.063Z,78.00
2018-07-11T09:47:30.008Z,74.40
2018-07-11T09:49:58.874Z,72.20
2018-07-11T09:52:27.536Z,70.60
2018-07-11T09:54:56.289Z,69.70
2018-07-11T09:57:30.220Z,68.40
2018-07-11T09:59:59.294Z,66.70
2018-07-11T10:02:28.391Z,67.00
2018-07-11T10:04:57.344Z,66.90
2018-07-11T10:07:26.828Z,66.90
2018-07-11T10:09:55.478Z,68.40
2018-07-11T10:12:24.054Z,67.70
2018-07-11T10:14:52.663Z,68.70
2018-07-11T10:17:21.260Z,67.80
2018-07-11T10:19:49.943Z,67.50
2018-07-11T10:22:18.714Z,68.60
2018-07-11T10:24:47.419Z,68.40
2018-07-11T10:27:16.207Z,67.70
2018-07-11T10:29:44.906Z,66.60
2018-07-11T10:32:13.556Z,63.80
2018-07-11T10:34:42.198Z,61.90
2018-07-11T10:37:10.970Z,60.50
2018-07-11T10:39:39.697Z,61.10
2018-07-11T10:42:08.369Z,59.00
2018-07-11T10:44:36.990Z,58.60
2018-07-11T10:47:10.555Z,58.30
2018-07-11T10:49:39.289Z,57.90
2018-07-11T10:52:08.375Z,59.60
2018-07-11T10:54:37.107Z,60.50
2018-07-11T10:57:05.797Z,62.20
2018-07-11T10:59:34.528Z,62.40
2018-07-11T11:04:31.438Z,63.30
2018-07-11T11:07:00.079Z,63.30
2018-07-11T11:09:28.743Z,64.40
2018-07-11T11:11:57.379Z,65.90
2018-07-11T11:14:26.065Z,66.40
2018-07-11T11:16:54.698Z,66.20
2018-07-11T11:19:23.437Z,66.40
2018-07-11T11:21:52.236Z,64.10
2018-07-11T11:24:20.932Z,63.70
2018-07-11T11:26:49.506Z,63.50
2018-07-11T11:29:18.116Z,63.20
2018-07-11T11:31:46.866Z,63.10
2018-07-11T11:34:15.512Z,62.20
2018-07-11T11:36:44.222Z,62.60
2018-07-11T11:39:12.877Z,63.70
2018-07-11T11:41:41.547Z,63.40
2018-07-11T11:44:11.346Z,63.70
2018-07-11T11:46:40.062Z,64.80
2018-07-11T11:49:08.658Z,65.50
2018-07-11T11:54:05.704Z,65.80
2018-07-11T11:56:34.438Z,66.50
2018-07-11T11:59:03.066Z,66.50
2018-07-11T12:01:31.719Z,66.00
2018-07-11T12:04:10.385Z,65.70
2018-07-11T12:06:39.013Z,65.90
2018-07-11T12:09:07.942Z,63.00
2018-07-11T12:11:36.611Z,62.30
2018-07-11T12:14:05.304Z,62.50
2018-07-11T12:16:33.939Z,62.60
2018-07-11T12:23:59.245Z,62.30
2018-07-11T12:26:27.999Z,62.00
2018-07-11T12:28:56.673Z,61.20
2018-07-11T12:31:25.314Z,60.80
2018-07-11T12:33:53.963Z,58.70
2018-07-11T12:36:22.637Z,59.00
2018-07-11T12:38:54.605Z,59.30
2018-07-11T12:41:23.365Z,59.00
2018-07-11T12:43:51.941Z,58.40
2018-07-11T12:46:20.605Z,58.30
2018-07-11T12:48:54.559Z,59.00
2018-07-11T12:51:23.215Z,57.80
2018-07-11T12:53:51.849Z,57.30
2018-07-11T12:56:20.523Z,56.50
2018-07-11T12:58:51.368Z,55.50
2018-07-11T13:01:20.017Z,55.00
2018-07-11T13:08:45.242Z,55.90
2018-07-11T13:11:13.870Z,56.40
2018-07-11T13:13:42.535Z,56.70
2018-07-11T13:16:17.108Z,57.40
2018-07-11T13:18:45.543Z,57.40
2018-07-11T13:21:14.213Z,56.40
2018-07-11T13:23:42.775Z,56.30
2018-07-11T13:26:11.579Z,54.90
2018-07-11T13:28:40.236Z,54.50
2018-07-11T13:31:09.149Z,54.00
2018-07-11T13:33:37.942Z,53.30
2018-07-11T13:36:12.783Z,53.70
2018-07-11T13:38:41.429Z,53.30
2018-07-11T13:41:10.084Z,53.50
2018-07-11T13:43:39.823Z,53.20
2018-07-11T13:46:08.526Z,54.50
2018-07-11T13:48:37.222Z,54.80
2018-07-11T13:51:06.119Z,56.30
2018-07-11T13:53:34.836Z,58.00
2018-07-11T13:56:09.624Z,57.60
2018-07-11T13:58:44.534Z,57.80
2018-07-11T14:01:13.392Z,58.00
2018-07-11T14:03:42.224Z,58.50
2018-07-11T14:06:10.847Z,57.60
2018-07-11T14:08:39.581Z,58.20
2018-07-11T14:11:08.281Z,56.60
2018-07-11T14:13:36.964Z,55.90
2018-07-11T14:16:05.621Z,56.60
2018-07-11T14:18:34.315Z,56.10
2018-07-11T14:21:02.969Z,55.20
2018-07-11T14:23:38.484Z,55.10
2018-07-11T14:26:07.457Z,55.10
2018-07-11T14:28:37.557Z,55.20
2018-07-11T14:31:06.279Z,55.20
2018-07-11T14:33:35.728Z,56.90
2018-07-11T14:36:04.398Z,57.40
2018-07-11T14:38:33.050Z,57.10
2018-07-11T14:41:02.872Z,57.20
2018-07-11T14:43:31.589Z,57.60
2018-07-11T14:46:00.356Z,57.40
2018-07-11T14:48:30.158Z,56.90
2018-07-11T14:51:00.695Z,56.90
2018-07-11T14:53:29.422Z,56.30
2018-07-11T14:55:58.108Z,56.70
2018-07-11T14:58:32.791Z,56.20
2018-07-11T15:01:01.470Z,54.30
2018-07-11T15:03:30.070Z,54.20
2018-07-11T15:05:58.873Z,52.70
2018-07-11T15:08:27.625Z,53.20
2018-07-11T15:10:58.265Z,53.10
2018-07-11T15:13:26.913Z,53.70
2018-07-11T15:15:55.689Z,53.70
2018-07-11T15:18:26.403Z,52.80
2018-07-11T15:20:56.035Z,52.80
2018-07-11T15:23:24.879Z,53.50
2018-07-11T15:25:55.614Z,53.60
2018-07-11T15:28:24.648Z,53.40
2018-07-11T15:30:53.361Z,52.90
2018-07-11T15:35:53.603Z,53.40
2018-07-11T15:38:22.322Z,52.90
2018-07-11T15:40:51.038Z,52.10
2018-07-11T15:43:19.832Z,51.70
2018-07-11T15:45:48.478Z,51.80
2018-07-11T15:48:17.187Z,51.40
2018-07-11T15:50:46.925Z,50.40
2018-07-11T15:53:16.265Z,50.00
2018-07-11T15:55:50.874Z,49.60
2018-07-11T15:58:20.546Z,49.50
2018-07-11T16:00:49.548Z,49.20
2018-07-11T16:03:19.327Z,49.60
2018-07-11T16:05:48.696Z,49.30
2018-07-11T16:08:20.300Z,50.00
2018-07-11T16:10:50.767Z,50.60
2018-07-11T16:13:19.539Z,50.30
2018-07-11T16:15:48.270Z,50.50
2018-07-11T16:20:45.307Z,50.70
2018-07-11T16:23:16.099Z,51.00
2018-07-11T16:25:45.170Z,51.10
2018-07-11T16:28:13.833Z,50.60
2018-07-11T16:30:42.576Z,51.00
2018-07-11T16:33:11.237Z,51.30
2018-07-11T16:35:39.934Z,51.10
2018-07-11T16:38:08.587Z,51.20
2018-07-11T16:40:37.250Z,51.70
2018-07-11T16:43:06.092Z,52.10
2018-07-11T16:45:34.843Z,52.50
2018-07-11T16:48:03.575Z,52.80
2018-07-11T16:50:33.468Z,52.50
2018-07-11T16:55:32.635Z,53.80
2018-07-11T16:58:01.361Z,54.30
2018-07-11T17:00:32.578Z,53.80
2018-07-11T17:03:07.902Z,54.60
2018-07-11T17:05:51.823Z,55.00
2018-07-11T17:08:28.431Z,55.50
2018-07-11T17:11:01.205Z,55.90
2018-07-11T17:13:30.004Z,56.00
2018-07-11T17:15:58.811Z,55.50
2018-07-11T17:18:34.782Z,55.50
2018-07-11T17:21:07.966Z,55.50
2018-07-11T17:23:43.029Z,55.00
2018-07-11T17:26:16.040Z,53.90
2018-07-11T17:28:44.768Z,53.80
2018-07-11T17:31:14.917Z,53.00
2018-07-11T17:33:43.613Z,53.90
2018-07-11T17:36:13.039Z,54.70
2018-07-11T17:38:41.982Z,54.10
2018-07-11T17:41:10.799Z,51.60
2018-07-11T17:43:40.195Z,51.60
2018-07-11T17:46:09.165Z,52.80
2018-07-11T17:49:48.745Z,53.90
2018-07-11T17:52:18.464Z,54.80
2018-07-11T17:55:04.900Z,55.00
2018-07-11T17:57:51.722Z,55.70
2018-07-11T18:00:33.867Z,55.80
2018-07-11T18:04:27.989Z,56.20
2018-07-11T18:07:05.804Z,56.70
2018-07-11T18:10:07.974Z,56.50
2018-07-11T18:12:45.290Z,57.50
2018-07-11T18:15:24.765Z,58.00
2018-07-11T18:19:07.765Z,57.80
2018-07-11T18:21:47.505Z,58.10
2018-07-11T18:24:23.894Z,58.40
2018-07-11T18:27:07.689Z,58.10
2018-07-11T18:29:45.061Z,58.60
2018-07-11T18:32:24.238Z,58.90
2018-07-11T18:37:09.571Z,58.80
2018-07-11T18:39:50.749Z,58.90
2018-07-11T18:42:33.020Z,59.50
2018-07-11T18:45:11.374Z,60.20
2018-07-11T18:47:50.071Z,60.10
2018-07-11T18:50:37.030Z,60.50
2018-07-11T18:53:17.595Z,60.70
2018-07-11T18:56:07.610Z,61.00
2018-07-11T18:58:42.948Z,61.20
2018-07-11T19:01:18.967Z,61.90
2018-07-11T19:04:59.150Z,61.80
2018-07-11T19:07:35.617Z,62.00
2018-07-11T19:10:06.646Z,62.60
2018-07-11T19:12:53.955Z,63.40
2018-07-11T19:15:37.086Z,63.70
2018-07-11T19:19:11.459Z,63.80
2018-07-11T19:22:02.603Z,64.40
2018-07-11T19:24:42.385Z,65.60
2018-07-11T19:27:16.709Z,68.10
2018-07-11T19:29:57.501Z,69.50
2018-07-11T19:36:10.480Z,75.90
2018-07-11T19:38:45.415Z,77.20
2018-07-11T19:41:18.982Z,79.40
2018-07-11T19:43:58.582Z,80.70
2018-07-11T19:46:41.928Z,79.10
2018-07-11T19:49:32.100Z,77.20
2018-07-11T19:54:29.335Z,77.40
2018-07-11T19:57:00.902Z,78.70
2018-07-11T19:59:29.537Z,79.20
2018-07-11T20:01:58.301Z,80.60
2018-07-11T20:04:27.062Z,81.30
2018-07-11T20:06:55.744Z,81.10
2018-07-11T20:09:24.465Z,81.80
2018-07-11T20:11:53.249Z,82.70
2018-07-11T20:14:21.858Z,82.20
2018-07-11T20:16:50.412Z,81.90
2018-07-11T20:19:19.093Z,81.10
2018-07-11T20:21:47.704Z,81.40
2018-07-11T20:24:16.404Z,82.50
2018-07-11T20:26:45.041Z,84.00
2018-07-11T20:29:13.653Z,83.50
2018-07-11T20:31:42.385Z,83.80
2018-07-11T20:34:11.051Z,83.70
2018-07-11T20:36:39.689Z,84.50
2018-07-11T20:39:08.298Z,82.90
2018-07-11T20:41:37.043Z,82.70
2018-07-11T20:44:05.670Z,83.90
2018-07-11T20:46:34.658Z,86.90
2018-07-11T20:49:08.857Z,88.40
2018-07-11T20:51:37.395Z,88.40
2018-07-11T20:54:06.218Z,88.30
2018-07-11T20:56:34.883Z,88.90
2018-07-11T20:59:14.492Z,89.50
2018-07-11T21:01:54.566Z,89.20
2018-07-11T21:04:31.270Z,90.00
2018-07-11T21:07:14.024Z,90.10
2018-07-11T21:09:57.176Z,90.50
2018-07-11T21:12:45.310Z,90.60
2018-07-11T21:17:39.157Z,90.90
2018-07-11T21:20:07.746Z,90.60
2018-07-11T21:22:36.408Z,91.00
2018-07-11T21:25:05.044Z,91.50
2018-07-11T21:27:33.798Z,92.20
2018-07-11T21:30:02.386Z,92.20
2018-07-11T21:32:30.982Z,92.40
2018-07-11T21:34:59.709Z,92.70
2018-07-11T21:37:28.419Z,93.30
2018-07-11T21:39:57.078Z,94.00
2018-07-11T21:42:25.666Z,94.20
2018-07-11T21:44:54.359Z,94.90
2018-07-11T21:47:22.967Z,95.10
2018-07-11T21:49:51.579Z,95.20
2018-07-11T21:52:20.216Z,95.30
2018-07-11T21:54:48.848Z,95.80
2018-07-11T21:57:17.478Z,96.10
2018-07-11T21:59:46.203Z,96.60
2018-07-11T22:02:14.886Z,96.70
2018-07-11T22:04:43.517Z,96.60
2018-07-11T22:07:12.047Z,96.40
2018-07-11T22:09:40.705Z,96.50
2018-07-11T22:12:09.345Z,96.40
2018-07-11T22:14:37.976Z,96.60
2018-07-11T22:17:17.890Z,96.90
2018-07-11T22:19:45.294Z,96.90
2018-07-11T22:22:12.729Z,97.30
2018-07-11T22:24:40.135Z,97.30
2018-07-11T22:27:07.576Z,97.80
2018-07-11T22:29:35.005Z,98.10
2018-07-11T22:32:02.372Z,98.50
2018-07-11T22:34:29.811Z,98.70
2018-07-11T22:36:57.205Z,98.80
2018-07-11T22:39:24.635Z,99.10
2018-07-11T22:41:52.056Z,99.60
2018-07-11T22:46:47.148Z,99.90
2018-07-11T22:49:14.549Z,99.90
2018-07-11T22:51:41.958Z,99.90
2018-07-11T22:54:09.413Z,99.90
2018-07-11T22:56:36.816Z,99.90
2018-07-11T22:59:04.578Z,99.90
2018-07-11T23:01:31.934Z,99.90
2018-07-11T23:06:26.965Z,99.90
2018-07-11T23:08:54.342Z,99.90
2018-07-11T23:11:21.774Z,99.90
2018-07-11T23:13:49.294Z,99.90
2018-07-11T23:16:16.702Z,99.90
2018-07-11T23:18:44.139Z,99.90
2018-07-11T23:21:11.503Z,99.90
2018-07-11T23:23:38.915Z,99.90
2018-07-11T23:26:06.313Z,99.90
2018-07-11T23:28:33.741Z,99.90
2018-07-11T23:31:01.148Z,99.90
2018-07-11T23:33:28.570Z,99.90
2018-07-11T23:35:55.968Z,99.90
2018-07-11T23:38:23.398Z,99.90
2018-07-11T23:40:50.823Z,99.90
2018-07-11T23:43:18.252Z,99.90
2018-07-11T23:45:45.643Z,99.90
2018-07-11T23:48:13.036Z,99.90
2018-07-11T23:50:40.483Z,99.90
2018-07-11T23:53:07.906Z,99.90
2018-07-11T23:55:35.301Z,99.90
2018-07-11T23:58:02.675Z,99.90
